Time;durP1;ratioP1;P1;durP2;ratioP2;P2;SDS_P1;SDS_P2;PMS_P1;PMS_P2;Temp;Humidity;BMP_temperature;BMP_pressure;BME280_temperature;BME280_humidity;BME280_pressure;Samples;Min_cycle;Max_cycle;Signal;HPM_P1;HPM_P2
2022/08/04 00:02:20;;;;;;;2.05;0.30;;;;;;;24.24;62.39;100706.63;5029446;28;20052;-60
2022/08/04 00:04:57;;;;;;;2.38;0.30;;;;;;;24.18;61.77;100708.34;5027736;28;20473;-61
2022/08/04 00:07:37;;;;;;;0.55;0.22;;;;;;;24.16;62.16;100702.44;5015710;28;20377;-61
2022/08/04 00:10:05;;;;;;;0.98;0.20;;;;;;;24.10;62.49;100701.50;5028695;28;20029;-60
2022/08/04 00:12:36;;;;;;;1.48;0.30;;;;;;;24.03;63.70;100698.16;5028413;28;20091;-60
2022/08/04 00:15:05;;;;;;;2.15;0.30;;;;;;;23.84;64.51;100701.91;5009947;28;20033;-60
2022/08/04 00:17:48;;;;;;;3.70;0.40;;;;;;;23.71;64.30;100702.06;5028114;28;20144;-60
2022/08/04 00:20:18;;;;;;;3.38;0.30;;;;;;;23.68;64.34;100700.66;5027275;28;20060;-60
2022/08/04 00:22:45;;;;;;;1.42;0.30;;;;;;;23.68;64.73;100697.19;5029017;28;20033;-60
2022/08/04 00:25:11;;;;;;;3.13;0.30;;;;;;;23.67;64.50;100703.53;5011044;28;20116;-60
2022/08/04 00:27:37;;;;;;;1.02;0.30;;;;;;;23.69;64.18;100698.81;5028866;28;20029;-60
2022/08/04 00:30:04;;;;;;;0.75;0.30;;;;;;;23.68;64.27;100707.84;5028551;28;20033;-60
2022/08/04 00:32:31;;;;;;;1.70;0.47;;;;;;;23.65;64.52;100692.31;5029105;28;20446;-60
2022/08/04 00:34:59;;;;;;;0.90;0.30;;;;;;;23.65;64.60;100700.28;5027019;28;20048;-60
2022/08/04 00:37:25;;;;;;;1.77;0.40;;;;;;;23.60;64.92;100702.84;5026664;28;20032;-60
2022/08/04 00:39:55;;;;;;;0.85;0.30;;;;;;;23.58;64.90;100691.63;5028417;28;20036;-60
2022/08/04 00:42:33;;;;;;;1.45;0.30;;;;;;;23.53;64.71;100700.28;5026424;28;20801;-60
2022/08/04 00:45:26;;;;;;;0.73;0.40;;;;;;;23.58;63.64;100697.75;4998788;28;20457;-60
2022/08/04 00:48:13;;;;;;;0.88;0.30;;;;;;;23.63;63.13;100697.09;5014659;28;20416;-60
2022/08/04 00:51:20;;;;;;;0.73;0.30;;;;;;;23.71;62.55;100696.75;5026233;28;20318;-61
2022/08/04 00:54:37;;;;;;;1.15;0.25;;;;;;;23.73;62.18;100695.47;5015234;28;20038;-60
2022/08/04 00:57:45;;;;;;;1.42;0.30;;;;;;;23.77;62.11;100703.81;4962684;28;20674;-60
2022/08/04 01:00:13;;;;;;;2.30;0.40;;;;;;;23.88;62.56;100697.75;4964109;28;20046;-60
2022/08/04 01:03:21;;;;;;;0.70;0.30;;;;;;;23.87;61.33;100698.78;4956808;28;20225;-60
2022/08/04 01:05:55;;;;;;;0.50;0.30;;;;;;;23.78;62.55;100698.28;4945739;28;20527;-61
2022/08/04 01:08:48;;;;;;;2.28;0.30;;;;;;;23.72;62.16;100693.84;4965870;28;20494;-60
2022/08/04 01:11:29;;;;;;;1.55;0.40;;;;;;;23.74;62.36;100698.97;4962031;28;20054;-60
2022/08/04 01:14:06;;;;;;;0.82;0.38;;;;;;;23.68;62.83;100694.53;4965924;28;20042;-60
2022/08/04 01:16:34;;;;;;;2.65;0.60;;;;;;;23.62;64.13;100692.81;4966905;28;20074;-60
2022/08/04 01:19:02;;;;;;;2.67;0.32;;;;;;;23.56;63.86;100686.53;4964025;28;20791;-60
2022/08/04 01:21:28;;;;;;;0.50;0.30;;;;;;;23.59;63.97;100685.28;4965740;28;20093;-60
2022/08/04 01:24:28;;;;;;;0.68;0.30;;;;;;;23.61;63.48;100685.84;4965630;28;20043;-60
2022/08/04 01:27:01;;;;;;;1.08;0.40;;;;;;;23.56;63.74;100677.72;4957581;28;20070;-60
2022/08/04 01:29:40;;;;;;;0.75;0.30;;;;;;;23.55;64.10;100684.09;4965694;28;20038;-60
2022/08/04 01:32:36;;;;;;;0.40;0.30;;;;;;;23.58;62.70;100683.66;4984049;28;20502;-60
2022/08/04 01:35:03;;;;;;;;;;;;;;;23.52;62.88;100684.50;5024651;28;20041;-60
2022/08/04 01:37:49;;;;;;;1.45;0.30;;;;;;;23.53;63.65;100678.16;5011352;28;19921;-60
2022/08/04 01:40:15;;;;;;;2.42;0.40;;;;;;;23.52;63.89;100676.53;5019616;28;20076;-60
2022/08/04 01:42:44;;;;;;;2.60;0.50;;;;;;;23.51;65.00;100681.03;4993874;28;20544;-60
2022/08/04 01:45:11;;;;;;;1.02;0.30;;;;;;;23.42;64.35;100683.19;5019544;28;20124;-60
2022/08/04 01:47:41;;;;;;;3.60;0.30;;;;;;;23.35;64.69;100681.63;5027450;28;20033;-60
2022/08/04 01:50:12;;;;;;;1.58;0.40;;;;;;;23.30;64.78;100676.97;5025998;28;20433;-60
2022/08/04 01:52:39;;;;;;;2.15;0.30;;;;;;;23.24;65.54;100680.53;5026899;28;20512;-60
2022/08/04 01:55:09;;;;;;;1.48;0.35;;;;;;;23.23;65.55;100676.25;5027185;28;20037;-60
2022/08/04 01:57:40;;;;;;;1.95;0.40;;;;;;;23.18;65.78;100670.78;5008285;28;20048;-60
2022/08/04 02:00:06;;;;;;;0.47;0.30;;;;;;;23.18;66.27;100666.28;5027400;28;20127;-60
2022/08/04 02:02:32;;;;;;;1.42;0.40;;;;;;;23.29;65.09;100667.38;5030612;28;20108;-60
2022/08/04 02:04:58;;;;;;;0.75;0.30;;;;;;;23.37;64.60;100658.28;5013760;28;20037;-60
2022/08/04 02:07:33;;;;;;;0.90;0.30;;;;;;;23.36;63.71;100662.00;5030746;28;20413;-61
2022/08/04 02:10:05;;;;;;;0.98;0.28;;;;;;;23.33;64.14;100663.25;5030280;28;20029;-60
2022/08/04 02:12:51;;;;;;;0.90;0.40;;;;;;;23.32;63.65;100658.97;5030092;28;20034;-60
2022/08/04 02:15:27;;;;;;;1.20;0.60;;;;;;;23.41;63.36;100660.28;5030871;28;20061;-60
2022/08/04 02:17:59;;;;;;;0.90;0.32;;;;;;;23.47;63.45;100654.06;5026899;28;20374;-61
2022/08/04 02:20:32;;;;;;;1.10;0.30;;;;;;;23.44;63.18;100661.69;5027435;28;20501;-60
2022/08/04 02:23:04;;;;;;;0.68;0.30;;;;;;;23.40;63.94;100660.50;5012594;28;20063;-60
2022/08/04 02:25:36;;;;;;;3.53;0.35;;;;;;;23.33;63.83;100657.94;5030158;28;20561;-60
2022/08/04 02:28:15;;;;;;;1.20;0.30;;;;;;;23.25;64.57;100657.41;5029544;28;20092;-61
2022/08/04 02:31:07;;;;;;;2.25;0.40;;;;;;;23.20;64.33;100654.63;5031029;28;20034;-60
2022/08/04 02:33:42;;;;;;;0.95;0.35;;;;;;;23.23;64.46;100652.31;5029976;28;20048;-60
2022/08/04 02:36:20;;;;;;;0.98;0.30;;;;;;;23.25;64.60;100655.56;5031427;28;20394;-60
2022/08/04 02:38:49;;;;;;;1.70;0.30;;;;;;;23.29;63.99;100650.63;5028289;28;20496;-62
2022/08/04 02:41:16;;;;;;;1.35;0.30;;;;;;;23.26;65.41;100651.06;5010925;28;20033;-60
2022/08/04 02:43:47;;;;;;;1.10;0.40;;;;;;;23.20;64.90;100647.44;5004428;28;20053;-61
2022/08/04 02:46:16;;;;;;;3.13;0.60;;;;;;;23.25;64.23;100654.75;5014355;28;20561;-60
2022/08/04 02:48:45;;;;;;;3.13;0.40;;;;;;;23.35;64.28;100655.88;5029641;28;20032;-60
2022/08/04 02:51:15;;;;;;;2.15;0.30;;;;;;;23.35;63.56;100647.88;5030601;28;20179;-60
2022/08/04 02:53:43;;;;;;;1.13;0.40;;;;;;;23.30;64.17;100650.41;5028864;28;20053;-61
2022/08/04 02:56:08;;;;;;;0.80;0.32;;;;;;;23.16;65.31;100649.75;5029548;28;20388;-61
2022/08/04 02:58:36;;;;;;;2.38;0.43;;;;;;;23.11;65.06;100638.19;5012243;28;20036;-61
2022/08/04 03:01:04;;;;;;;1.13;0.30;;;;;;;23.09;65.61;100640.25;5030086;28;20033;-60
2022/08/04 03:03:37;;;;;;;0.65;0.30;;;;;;;23.10;65.31;100648.00;5029122;28;20412;-60
2022/08/04 03:06:10;;;;;;;2.13;0.47;;;;;;;23.16;64.22;100640.97;5010752;28;20111;-60
2022/08/04 03:09:27;;;;;;;1.35;0.40;;;;;;;23.23;63.04;100641.69;5022452;28;20339;-62
2022/08/04 03:12:23;;;;;;;1.30;0.30;;;;;;;23.28;62.64;100643.69;4929766;28;20115;-60
2022/08/04 03:15:22;;;;;;;2.10;0.30;;;;;;;23.26;62.35;100635.13;4936708;29;20040;-61
2022/08/04 03:18:14;;;;;;;2.50;0.40;;;;;;;23.25;62.84;100639.63;4945349;29;20040;-60
2022/08/04 03:21:14;;;;;;;1.65;0.30;;;;;;;23.28;63.17;100638.38;4944252;29;20039;-60
2022/08/04 03:24:07;;;;;;;0.68;0.30;;;;;;;23.26;63.18;100635.94;4943723;29;20155;-61
2022/08/04 03:26:54;;;;;;;0.65;0.32;;;;;;;23.18;63.18;100639.69;4941671;29;20055;-60
2022/08/04 03:29:56;;;;;;;0.85;0.30;;;;;;;23.16;63.58;100630.31;4949100;29;20054;-61
2022/08/04 03:32:31;;;;;;;1.02;0.30;;;;;;;23.09;63.87;100633.09;4949286;29;20122;-60
2022/08/04 03:35:03;;;;;;;0.60;0.35;;;;;;;23.03;64.97;100630.50;4944932;29;20040;-60
2022/08/04 03:37:57;;;;;;;0.90;0.38;;;;;;;23.00;64.52;100629.09;4948522;29;20050;-60
2022/08/04 03:40:31;;;;;;;2.25;0.95;;;;;;;23.02;64.19;100629.69;4948832;29;20039;-61
2022/08/04 03:43:30;;;;;;;1.23;0.30;;;;;;;23.05;63.04;100634.56;4932112;29;20059;-60
2022/08/04 03:46:15;;;;;;;0.90;0.50;;;;;;;23.07;64.31;100634.34;4948813;29;20062;-60
2022/08/04 03:48:57;;;;;;;2.30;0.40;;;;;;;23.00;64.35;100636.25;5027177;28;20044;-60
2022/08/04 03:54:23;;;;;;;0.68;0.38;;;;;;;22.90;65.80;100635.97;5029747;28;20094;-60
2022/08/04 03:57:17;;;;;;;2.33;0.40;;;;;;;22.87;66.05;100634.56;5029700;28;20041;-60
2022/08/04 04:00:05;;;;;;;2.50;0.30;;;;;;;22.77;66.79;100637.69;5029145;28;20092;-60
2022/08/04 04:03:01;;;;;;;1.70;0.30;;;;;;;22.71;67.51;100638.56;5029082;28;20029;-60
2022/08/04 04:06:00;;;;;;;4.13;0.55;;;;;;;22.63;67.42;100636.22;5029426;28;20031;-60
2022/08/04 04:08:46;;;;;;;1.52;0.40;;;;;;;22.62;66.38;100637.25;5029064;28;20029;-61
2022/08/04 04:11:24;;;;;;;2.75;0.40;;;;;;;22.64;66.57;100637.84;5009324;28;20475;-60
2022/08/04 04:14:10;;;;;;;2.40;0.40;;;;;;;22.64;66.48;100643.16;5027098;28;20037;-61
2022/08/04 04:17:23;;;;;;;2.00;0.40;;;;;;;22.70;65.86;100639.59;5029001;28;20373;-60
2022/08/04 04:19:58;;;;;;;0.80;0.40;;;;;;;22.76;65.53;100644.03;5017147;28;20091;-60
2022/08/04 04:22:54;;;;;;;0.65;0.38;;;;;;;22.82;64.94;100635.22;5028563;28;20421;-60
2022/08/04 04:25:28;;;;;;;1.25;0.35;;;;;;;22.85;65.63;100641.94;5008400;28;20091;-60
2022/08/04 04:28:24;;;;;;;4.00;0.40;;;;;;;22.82;64.73;100640.53;5027239;28;20044;-60
2022/08/04 04:31:09;;;;;;;1.58;0.40;;;;;;;22.80;65.40;100636.47;5028882;28;20282;-60
2022/08/04 04:33:41;;;;;;;;;;;;;;;22.76;65.13;100652.00;5028471;28;20064;-61
2022/08/04 04:36:39;;;;;;;2.13;0.52;;;;;;;22.72;65.54;100650.81;5028688;28;19991;-61
2022/08/04 04:39:23;;;;;;;1.25;0.50;;;;;;;22.76;65.55;100654.66;4961074;28;20070;-61
2022/08/04 04:42:24;;;;;;;5.57;0.43;;;;;;;22.76;65.93;100648.53;4967086;28;20570;-60
2022/08/04 04:45:08;;;;;;;2.05;0.50;;;;;;;22.80;65.96;100650.56;4966241;28;20561;-60
2022/08/04 04:47:48;;;;;;;1.15;0.47;;;;;;;22.84;65.65;100651.75;4950966;28;20125;-60
2022/08/04 04:50:25;;;;;;;4.35;0.47;;;;;;;22.88;66.01;100646.81;4966930;28;20042;-61
2022/08/04 04:53:05;;;;;;;2.45;0.55;;;;;;;23.00;64.76;100649.53;4967307;28;20038;-60
2022/08/04 04:55:39;;;;;;;4.38;0.47;;;;;;;23.06;65.07;100657.44;4967136;28;20074;-60
2022/08/04 04:58:11;;;;;;;5.40;0.82;;;;;;;23.11;65.74;100654.94;4967208;28;20038;-60
2022/08/04 05:00:59;;;;;;;1.33;0.40;;;;;;;23.20;63.71;100655.44;4949868;28;20031;-60
2022/08/04 05:03:41;;;;;;;1.63;0.70;;;;;;;23.24;64.44;100653.13;4966869;28;20038;-60
2022/08/04 05:06:50;;;;;;;2.08;0.50;;;;;;;23.25;64.18;100660.06;4967007;28;20046;-61
2022/08/04 05:09:30;;;;;;;1.95;0.40;;;;;;;23.26;64.30;100657.19;4966566;28;20035;-61
2022/08/04 05:12:05;;;;;;;2.75;0.40;;;;;;;23.36;64.86;100662.00;4966818;28;20407;-61
2022/08/04 05:14:32;;;;;;;1.50;0.53;;;;;;;23.44;65.00;100653.72;4984480;28;20659;-60
2022/08/04 05:17:09;;;;;;;3.00;0.50;;;;;;;23.48;63.82;100661.03;5024012;28;20456;-60
2022/08/04 05:19:54;;;;;;;0.85;0.25;;;;;;;23.51;63.59;100654.44;5025515;28;20108;-62
2022/08/04 05:22:25;;;;;;;2.25;0.50;;;;;;;23.56;63.84;100656.47;5023460;28;20112;-61
2022/08/04 05:24:59;;;;;;;2.05;0.40;;;;;;;23.55;63.78;100660.16;5027869;28;20038;-61
2022/08/04 05:27:35;;;;;;;5.55;0.63;;;;;;;23.53;64.37;100656.88;5026769;28;20034;-62
2022/08/04 05:30:04;;;;;;;3.03;0.77;;;;;;;23.47;64.74;100654.06;5022549;28;20033;-61
2022/08/04 05:32:39;;;;;;;2.20;0.75;;;;;;;23.45;64.82;100650.00;5020399;28;20037;-63
2022/08/04 05:35:13;;;;;;;5.47;0.60;;;;;;;23.47;64.60;100645.28;5014984;28;20029;-61
2022/08/04 05:37:42;;;;;;;7.90;0.60;;;;;;;23.54;65.09;100653.22;5029798;28;20033;-61
2022/08/04 05:40:11;;;;;;;1.25;0.50;;;;;;;23.58;64.78;100649.88;5032312;28;20026;-62
2022/08/04 05:42:39;;;;;;;2.60;0.93;;;;;;;23.65;64.21;100645.25;5031309;28;20042;-62
2022/08/04 05:45:06;;;;;;;3.47;0.40;;;;;;;23.69;63.77;100640.28;5032039;28;20076;-62
2022/08/04 05:47:33;;;;;;;1.08;0.45;;;;;;;23.76;64.08;100646.34;5032078;28;20044;-61
2022/08/04 05:50:01;;;;;;;3.67;0.40;;;;;;;23.83;63.48;100647.06;5032186;28;20080;-62
2022/08/04 05:52:29;;;;;;;0.95;0.40;;;;;;;23.95;63.68;100645.25;5023239;28;20084;-61
2022/08/04 05:54:57;;;;;;;1.77;0.55;;;;;;;24.12;63.01;100645.38;5031996;28;20025;-61
2022/08/04 05:57:23;;;;;;;2.15;0.40;;;;;;;24.20;62.55;100653.03;5031781;28;20033;-63
2022/08/04 05:59:50;;;;;;;2.75;0.40;;;;;;;24.32;62.46;100645.09;5027115;28;20095;-61
2022/08/04 06:02:18;;;;;;;2.08;1.02;;;;;;;24.32;61.31;100645.91;5031517;28;20056;-61
2022/08/04 06:04:47;;;;;;;1.27;0.30;;;;;;;24.43;61.77;100650.44;5031611;28;20021;-63
2022/08/04 06:07:13;;;;;;;1.58;0.50;;;;;;;24.58;60.60;100641.16;5032039;28;20025;-61
2022/08/04 06:09:40;;;;;;;0.80;0.40;;;;;;;24.72;60.80;100656.66;5022990;28;20540;-63
2022/08/04 06:12:21;;;;;;;1.27;0.40;;;;;;;24.79;59.30;100649.38;5031511;28;20295;-62
2022/08/04 06:14:51;;;;;;;3.88;0.40;;;;;;;25.08;60.12;100649.44;5031306;28;20109;-62
2022/08/04 06:17:30;;;;;;;1.50;0.30;;;;;;;25.11;58.28;100647.13;5027140;28;20057;-62
2022/08/04 06:19:57;;;;;;;1.95;0.40;;;;;;;25.11;59.38;100652.47;5031095;28;20022;-61
2022/08/04 06:22:24;;;;;;;3.42;0.98;;;;;;;25.21;59.13;100649.19;5031250;28;20036;-62
2022/08/04 06:24:52;;;;;;;1.00;0.45;;;;;;;25.22;59.21;100653.47;5027769;28;20034;-64
2022/08/04 06:27:18;;;;;;;3.30;0.50;;;;;;;25.22;59.24;100644.66;5026475;28;20483;-59
2022/08/04 06:29:47;;;;;;;1.98;0.40;;;;;;;25.31;59.09;100649.41;5031507;28;20489;-61
2022/08/04 06:32:25;;;;;;;2.50;0.43;;;;;;;25.42;59.01;100645.88;5027510;28;20034;-62
2022/08/04 06:34:57;;;;;;;2.05;0.30;;;;;;;25.46;58.63;100647.03;5000510;28;20379;-61
2022/08/04 06:37:25;;;;;;;1.00;0.50;;;;;;;25.58;57.92;100652.31;4993582;28;20033;-62
2022/08/04 06:39:52;;;;;;;1.40;0.38;;;;;;;25.72;58.80;100648.31;5013012;28;20116;-61
2022/08/04 06:42:20;;;;;;;2.67;0.38;;;;;;;25.77;58.30;100651.09;5023235;28;20056;-63
2022/08/04 06:44:50;;;;;;;3.05;0.40;;;;;;;25.77;57.66;100658.28;5030316;28;20037;-62
2022/08/04 06:47:20;;;;;;;0.93;0.40;;;;;;;25.80;57.31;100649.81;5030570;28;20369;-63
2022/08/04 06:49:48;;;;;;;3.20;0.63;;;;;;;25.89;56.87;100652.88;5008834;28;20120;-60
2022/08/04 06:52:16;;;;;;;2.75;0.43;;;;;;;25.99;57.11;100651.22;5031225;28;20449;-62
2022/08/04 06:54:46;;;;;;;2.65;0.40;;;;;;;26.21;56.11;100647.81;5009875;28;20367;-61
2022/08/04 06:57:19;;;;;;;1.02;0.40;;;;;;;26.26;56.07;100651.38;5016905;28;20088;-60
2022/08/04 06:59:50;;;;;;;2.05;0.40;;;;;;;26.39;56.25;100655.59;5028457;28;20038;-63
2022/08/04 07:02:22;;;;;;;2.05;0.60;;;;;;;26.48;55.54;100646.09;5020635;28;20034;-64
2022/08/04 07:04:48;;;;;;;1.65;0.40;;;;;;;26.58;55.87;100648.94;5025838;28;20045;-62
2022/08/04 07:07:15;;;;;;;2.90;0.60;;;;;;;26.73;55.91;100646.47;5020918;28;20044;-61
2022/08/04 07:09:40;;;;;;;2.22;0.50;;;;;;;26.84;55.37;100647.44;5026518;28;20068;-62
2022/08/04 07:12:07;;;;;;;0.93;0.30;;;;;;;26.99;55.44;100644.16;5028074;28;20061;-63
2022/08/04 07:14:36;;;;;;;4.05;0.38;;;;;;;27.09;54.79;100641.59;5030602;28;20523;-60
2022/08/04 07:17:06;;;;;;;2.67;0.57;;;;;;;27.17;53.83;100640.38;5030501;28;20491;-59
2022/08/04 07:19:33;;;;;;;2.20;0.47;;;;;;;27.31;54.33;100633.56;5008398;28;20037;-62
2022/08/04 07:22:04;;;;;;;0.93;0.40;;;;;;;27.43;53.49;100643.06;5025708;28;20548;-61
2022/08/04 07:24:35;;;;;;;1.90;0.40;;;;;;;27.60;53.58;100644.88;5000218;28;20037;-62
2022/08/04 07:27:01;;;;;;;4.40;0.50;;;;;;;27.75;53.74;100647.69;5029700;28;20029;-62
2022/08/04 07:29:27;;;;;;;0.70;0.60;;;;;;;27.88;52.96;100649.16;5029852;28;20038;-59
2022/08/04 07:31:57;;;;;;;2.10;0.43;;;;;;;27.95;52.68;100653.22;5025474;28;20041;-62
2022/08/04 07:34:24;;;;;;;1.38;0.30;;;;;;;28.06;52.40;100641.53;5019777;28;20025;-61
2022/08/04 07:36:52;;;;;;;1.70;0.30;;;;;;;28.24;51.70;100644.94;5026212;28;20078;-59
2022/08/04 07:39:19;;;;;;;1.75;0.40;;;;;;;28.40;51.40;100643.94;5022486;28;20364;-58
2022/08/04 07:41:45;;;;;;;1.40;0.40;;;;;;;28.47;51.22;100643.72;5025125;28;20026;-59
2022/08/04 07:44:13;;;;;;;0.50;0.30;;;;;;;28.64;50.34;100642.50;5028117;28;20061;-59
2022/08/04 07:46:41;;;;;;;1.95;0.30;;;;;;;28.89;50.24;100643.72;5027883;28;20056;-59
2022/08/04 07:49:07;;;;;;;2.08;0.38;;;;;;;29.04;49.99;100639.22;5028065;28;20537;-58
2022/08/04 07:51:34;;;;;;;3.35;0.35;;;;;;;29.21;49.49;100652.44;5027441;28;20026;-59
2022/08/04 07:54:02;;;;;;;1.30;0.40;;;;;;;29.30;49.86;100644.69;5020908;28;20045;-58
2022/08/04 07:56:29;;;;;;;0.65;0.30;;;;;;;29.30;50.26;100647.38;5016633;28;20027;-59
2022/08/04 07:58:55;;;;;;;1.42;0.30;;;;;;;29.36;49.22;100647.09;5024905;28;20056;-59
2022/08/04 08:01:22;;;;;;;1.63;0.60;;;;;;;29.51;48.29;100642.88;5029570;28;20128;-59
2022/08/04 08:03:49;;;;;;;1.95;0.50;;;;;;;29.62;48.04;100633.78;5018037;28;20034;-59
2022/08/04 08:06:15;;;;;;;2.22;0.30;;;;;;;29.82;47.68;100636.47;5024379;28;20096;-59
2022/08/04 08:08:40;;;;;;;0.40;0.30;;;;;;;29.87;46.42;100630.28;5016533;28;20040;-61
2022/08/04 08:11:08;;;;;;;1.75;0.30;;;;;;;30.05;46.34;100637.84;5007436;28;20033;-58
2022/08/04 08:13:34;;;;;;;0.57;0.30;;;;;;;30.24;46.27;100632.75;5011003;28;20061;-59
2022/08/04 08:16:00;;;;;;;3.42;0.30;;;;;;;30.39;43.81;100632.69;5007286;28;20512;-61
2022/08/04 08:18:26;;;;;;;0.55;0.20;;;;;;;30.40;44.26;100618.19;5014388;28;20025;-59
2022/08/04 08:20:52;;;;;;;0.90;0.30;;;;;;;30.61;43.56;100624.34;5024909;28;20037;-59
2022/08/04 08:23:18;;;;;;;0.55;0.30;;;;;;;30.71;43.14;100627.00;5021771;28;20029;-59
2022/08/04 08:25:44;;;;;;;1.75;0.25;;;;;;;30.86;42.70;100623.44;5019335;28;20065;-58
2022/08/04 08:28:10;;;;;;;2.47;0.40;;;;;;;31.04;41.20;100622.84;5023650;28;20061;-59
2022/08/04 08:30:35;;;;;;;1.35;0.30;;;;;;;30.96;41.76;100618.81;5024629;28;20031;-59
2022/08/04 08:33:05;;;;;;;2.83;0.88;;;;;;;31.01;40.74;100624.19;5009719;28;20036;-59
2022/08/04 08:35:39;;;;;;;2.15;0.50;;;;;;;31.13;38.72;100618.53;5025352;28;20381;-59
2022/08/04 08:38:07;;;;;;;8.23;0.30;;;;;;;31.22;40.80;100614.13;5029054;28;20034;-58
2022/08/04 08:40:42;;;;;;;1.60;0.22;;;;;;;31.36;39.78;100619.72;5020050;28;20037;-58
2022/08/04 08:43:26;;;;;;;0.77;0.30;;;;;;;31.49;40.64;100611.03;5028041;28;20052;-59
2022/08/04 08:46:20;;;;;;;2.45;0.30;;;;;;;31.57;39.11;100607.75;5025317;28;20486;-60
2022/08/04 08:48:57;;;;;;;1.45;0.20;;;;;;;31.51;38.21;100608.06;5019555;28;20038;-60
2022/08/04 08:51:38;;;;;;;0.52;0.20;;;;;;;31.60;37.95;100607.19;5003354;28;20073;-59
2022/08/04 08:54:43;;;;;;;0.98;0.30;;;;;;;31.52;38.47;100606.97;5013856;28;20112;-61
2022/08/04 08:57:27;;;;;;;1.17;0.20;;;;;;;31.45;36.72;100609.97;5010167;28;20076;-59
2022/08/04 09:00:10;;;;;;;1.90;0.40;;;;;;;31.57;37.20;100610.44;5019952;28;20368;-60
2022/08/04 09:02:45;;;;;;;1.30;0.40;;;;;;;31.57;37.25;100605.03;5023946;28;20037;-60
2022/08/04 09:05:20;;;;;;;0.63;0.30;;;;;;;31.66;36.25;100602.56;5021741;28;20493;-60
2022/08/04 09:08:09;;;;;;;1.58;0.30;;;;;;;31.61;36.27;100597.22;5019307;28;20463;-59
2022/08/04 09:10:52;;;;;;;0.52;0.20;;;;;;;31.58;35.74;100601.28;5022528;28;20591;-59
2022/08/04 09:14:07;;;;;;;1.95;0.30;;;;;;;31.55;35.53;100592.94;5022763;28;20029;-61
2022/08/04 09:16:44;;;;;;;2.50;0.60;;;;;;;31.65;38.02;100595.56;4979540;28;20073;-59
2022/08/04 09:19:34;;;;;;;2.58;0.30;;;;;;;31.63;35.51;100595.03;4978099;28;20061;-61
2022/08/04 09:22:31;;;;;;;1.73;0.20;;;;;;;31.62;35.83;100596.13;4977101;28;20121;-59
2022/08/04 09:25:12;;;;;;;3.45;0.20;;;;;;;31.59;37.37;100602.06;4983814;28;20046;-60
2022/08/04 09:28:06;;;;;;;2.55;0.40;;;;;;;31.70;35.85;100583.94;4984199;28;20034;-60
2022/08/04 09:30:42;;;;;;;1.92;0.22;;;;;;;31.76;37.48;100591.72;4972991;28;20038;-60
2022/08/04 09:33:34;;;;;;;0.38;0.20;;;;;;;31.69;35.84;100591.22;4984425;28;20105;-59
2022/08/04 09:36:12;;;;;;;1.30;0.30;;;;;;;31.79;37.04;100606.50;4964540;28;20102;-59
2022/08/04 09:38:54;;;;;;;0.22;0.20;;;;;;;31.72;36.90;100589.88;4980915;28;20050;-60
2022/08/04 09:41:47;;;;;;;0.60;0.20;;;;;;;31.71;37.54;100591.75;4984345;28;20074;-61
2022/08/04 09:44:32;;;;;;;1.27;0.73;;;;;;;31.82;36.81;100593.28;4965098;28;20057;-61
2022/08/04 09:47:34;;;;;;;0.40;0.25;;;;;;;31.62;36.03;100591.53;4983371;28;20041;-59
2022/08/04 09:50:21;;;;;;;0.73;0.22;;;;;;;31.95;36.46;100579.16;4969345;28;20049;-63
2022/08/04 09:53:11;;;;;;;2.50;0.35;;;;;;;32.10;36.98;100585.50;5027201;28;21198;-60
2022/08/04 09:55:53;;;;;;;2.67;0.28;;;;;;;32.18;38.54;100582.97;5018036;28;20037;-61
2022/08/04 09:58:21;;;;;;;1.75;0.30;;;;;;;32.18;39.12;100584.84;5024032;28;20033;-61
2022/08/04 10:01:01;;;;;;;0.77;0.20;;;;;;;32.09;38.14;100575.81;5009807;28;20070;-62
2022/08/04 10:03:32;;;;;;;1.75;0.30;;;;;;;32.04;38.39;100571.28;5023598;28;20459;-59
2022/08/04 10:06:16;;;;;;;0.38;0.20;;;;;;;32.00;38.25;100564.84;4999247;28;20038;-61
2022/08/04 10:09:03;;;;;;;1.55;0.20;;;;;;;31.88;36.59;100567.09;5026740;28;20045;-61
2022/08/04 10:11:38;;;;;;;0.88;0.30;;;;;;;31.93;38.10;100565.16;5024988;28;20056;-62
2022/08/04 10:14:18;;;;;;;2.55;0.40;;;;;;;31.95;38.61;100557.59;5027755;28;20061;-60
2022/08/04 10:17:10;;;;;;;1.15;0.30;;;;;;;31.93;37.84;100565.16;5022620;28;20144;-63
2022/08/04 10:19:40;;;;;;;2.50;0.30;;;;;;;32.01;37.66;100561.06;5019719;28;20125;-60
2022/08/04 10:22:26;;;;;;;0.65;0.30;;;;;;;32.20;36.28;100555.72;4991566;28;20098;-62
2022/08/04 10:25:13;;;;;;;0.40;0.20;;;;;;;32.22;36.91;100558.97;5024967;28;20116;-60
2022/08/04 10:28:02;;;;;;;3.03;0.30;;;;;;;32.17;37.40;100559.78;5027046;28;20034;-60
2022/08/04 10:30:32;;;;;;;3.13;0.30;;;;;;;32.21;38.26;100555.44;5020469;28;20384;-60
2022/08/04 10:32:57;;;;;;;0.93;0.20;;;;;;;32.32;37.56;100561.56;4995366;28;20034;-63
2022/08/04 10:35:25;;;;;;;1.15;0.22;;;;;;;32.36;36.93;100545.63;5029535;28;20100;-61
2022/08/04 10:38:18;;;;;;;0.47;0.30;;;;;;;32.16;35.93;100557.38;5030026;28;20073;-62
2022/08/04 10:41:22;;;;;;;0.32;0.20;;;;;;;31.78;35.36;100543.75;5022669;28;20261;-63
2022/08/04 10:44:08;;;;;;;0.70;0.30;;;;;;;31.97;35.59;100541.97;5004829;28;20398;-64
2022/08/04 10:46:39;;;;;;;0.60;0.20;;;;;;;32.00;36.18;100545.97;5008359;28;20128;-61
2022/08/04 10:49:13;;;;;;;0.45;0.20;;;;;;;31.99;35.64;100536.28;5003284;28;20410;-62
2022/08/04 10:51:46;;;;;;;0.83;0.20;;;;;;;32.06;35.19;100533.25;5004441;28;20410;-63
2022/08/04 10:54:28;;;;;;;3.63;0.20;;;;;;;32.25;35.76;100526.06;4987474;28;20076;-62
2022/08/04 10:57:07;;;;;;;1.00;0.20;;;;;;;32.39;35.22;100526.97;4988263;28;20065;-59
2022/08/04 10:59:55;;;;;;;0.25;0.20;;;;;;;32.41;35.76;100526.69;4984213;28;20191;-62
2022/08/04 11:02:37;;;;;;;2.30;0.20;;;;;;;32.47;35.53;100520.94;5004259;28;20562;-60
2022/08/04 11:05:28;;;;;;;0.57;0.20;;;;;;;32.40;36.13;100530.47;4990714;28;20057;-61
2022/08/04 11:08:00;;;;;;;0.63;0.20;;;;;;;32.21;36.46;100535.78;5004048;28;20124;-61
2022/08/04 11:10:32;;;;;;;2.92;0.20;;;;;;;32.16;36.63;100527.75;4998036;28;20117;-63
2022/08/04 11:13:03;;;;;;;1.77;0.20;;;;;;;32.18;36.65;100526.38;5001002;28;20169;-61
2022/08/04 11:15:40;;;;;;;1.73;0.25;;;;;;;32.29;36.45;100519.00;4998644;28;20096;-62
2022/08/04 11:18:30;;;;;;;0.47;0.30;;;;;;;32.32;36.16;100521.13;5008189;28;20053;-61
2022/08/04 11:21:08;;;;;;;0.55;0.20;;;;;;;32.36;37.33;100524.03;5001386;28;20037;-63
2022/08/04 11:23:37;;;;;;;0.40;0.30;;;;;;;32.48;37.20;100522.56;5029062;28;20056;-61
2022/08/04 11:26:12;;;;;;;1.20;0.13;;;;;;;32.47;35.32;100520.16;5026390;28;20032;-63
2022/08/04 11:28:44;;;;;;;0.50;0.20;;;;;;;32.31;35.25;100523.00;5027309;28;20119;-63
2022/08/04 11:31:12;;;;;;;0.40;0.20;;;;;;;32.30;35.65;100521.41;5025957;28;20044;-61
2022/08/04 11:33:51;;;;;;;2.33;0.20;;;;;;;32.22;35.83;100513.16;5027480;28;20112;-60
2022/08/04 11:36:27;;;;;;;0.60;0.20;;;;;;;32.18;36.50;100515.59;5027865;28;20436;-60
2022/08/04 11:39:13;;;;;;;1.08;0.30;;;;;;;32.20;35.97;100518.00;5006776;28;20033;-62
2022/08/04 11:41:51;;;;;;;0.35;0.10;;;;;;;32.11;37.07;100514.34;5019729;28;20512;-60
2022/08/04 11:44:36;;;;;;;0.50;0.20;;;;;;;32.12;36.10;100508.66;4967845;28;20038;-60
2022/08/04 11:47:08;;;;;;;2.25;0.30;;;;;;;32.13;36.77;100506.78;5002577;28;20112;-61
2022/08/04 11:49:43;;;;;;;0.65;0.20;;;;;;;32.23;37.05;100510.16;4998749;28;20038;-60
2022/08/04 11:52:09;;;;;;;;;;;;;;;32.20;36.12;100505.31;5002460;28;20033;-62
2022/08/04 11:54:37;;;;;;;0.82;0.20;;;;;;;32.38;36.92;100509.19;5004487;28;20329;-60
2022/08/04 11:57:03;;;;;;;1.92;0.20;;;;;;;32.36;37.11;100507.88;5007864;28;20033;-61
2022/08/04 11:59:34;;;;;;;0.88;0.20;;;;;;;32.33;36.28;100507.34;5005096;28;20062;-61
2022/08/04 12:02:21;;;;;;;1.20;0.20;;;;;;;32.44;36.08;100510.72;5010153;28;20032;-61
2022/08/04 12:04:59;;;;;;;0.32;0.20;;;;;;;32.52;36.93;100512.78;5006257;28;20379;-62
2022/08/04 12:08:01;;;;;;;0.65;0.20;;;;;;;32.54;36.86;100501.72;5009368;28;20044;-59
2022/08/04 12:10:55;;;;;;;2.38;0.28;;;;;;;32.51;37.44;100500.41;5010842;28;20516;-61
2022/08/04 12:13:40;;;;;;;0.68;0.20;;;;;;;32.47;37.38;100498.56;5002361;28;20068;-60
2022/08/04 12:16:26;;;;;;;0.47;0.20;;;;;;;32.54;36.50;100499.81;4999752;28;20038;-61